createdAt,value
2022-10-17T00:02:15.495Z,98422.97
2022-10-17T00:04:43.008Z,98430.38
2022-10-17T00:07:10.345Z,98428.09
2022-10-17T00:09:37.702Z,98425.75
2022-10-17T00:12:05.461Z,98424.09
2022-10-17T00:14:32.817Z,98426.22
2022-10-17T00:17:00.125Z,98426.22
2022-10-17T00:19:28.806Z,98425.16
2022-10-17T00:21:56.134Z,98424.97
2022-10-17T00:24:23.462Z,98432.19
2022-10-17T00:26:50.799Z,98424.06
2022-10-17T00:29:18.196Z,98428.69
2022-10-17T00:31:45.614Z,98429.63
2022-10-17T00:34:12.978Z,98433.88
2022-10-17T00:36:41.722Z,98431.44
2022-10-17T00:39:10.101Z,98435.75
2022-10-17T00:41:37.437Z,98435.56
2022-10-17T00:44:06.392Z,98438.91
2022-10-17T00:46:34.634Z,98438.28
2022-10-17T00:49:03.482Z,98431.81
2022-10-17T00:51:34.690Z,98429.59
2022-10-17T00:54:03.837Z,98432.69
2022-10-17T00:56:31.592Z,98434.16
2022-10-17T00:58:59.050Z,98432.06
2022-10-17T01:01:26.647Z,98431.84
2022-10-17T01:03:54.017Z,98433.72
2022-10-17T01:06:21.342Z,98436.84
2022-10-17T01:08:48.725Z,98426.66
2022-10-17T01:11:23.972Z,98429.34
2022-10-17T01:13:53.547Z,98442.84
2022-10-17T01:16:29.066Z,98435.16
2022-10-17T01:19:01.994Z,98439.72
2022-10-17T01:21:34.678Z,98446.75
2022-10-17T01:24:11.160Z,98442.38
2022-10-17T01:26:46.198Z,98445.28
2022-10-17T01:29:19.589Z,98444.66
2022-10-17T01:31:49.735Z,98442.34
2022-10-17T01:34:19.890Z,98436.56
2022-10-17T01:36:51.911Z,98438.41
2022-10-17T01:39:25.888Z,98437.56
2022-10-17T01:41:59.037Z,98435.72
2022-10-17T01:44:29.790Z,98440.91
2022-10-17T01:47:01.245Z,98445.03
2022-10-17T01:49:30.549Z,98442.34
2022-10-17T01:51:59.898Z,98449.16
2022-10-17T01:54:31.610Z,98441.88
2022-10-17T01:57:00.985Z,98439.41
2022-10-17T01:59:30.942Z,98441.44
2022-10-17T02:02:00.408Z,98444.97
2022-10-17T02:04:28.218Z,98435.41
2022-10-17T02:06:55.576Z,98434.56
2022-10-17T02:09:24.474Z,98431.69
2022-10-17T02:11:56.903Z,98433.31
2022-10-17T02:14:30.673Z,98436.19
2022-10-17T02:17:03.406Z,98432.22
2022-10-17T02:19:47.326Z,98432.22
2022-10-17T02:22:19.361Z,98432.03
2022-10-17T02:24:49.037Z,98427.47
2022-10-17T02:27:18.094Z,98426.00
2022-10-17T02:29:48.037Z,98422.28
2022-10-17T02:32:19.502Z,98426.81
2022-10-17T02:34:49.266Z,98419.97
2022-10-17T02:37:17.674Z,98418.72
2022-10-17T02:39:45.166Z,98422.69
2022-10-17T02:42:14.329Z,98422.03
2022-10-17T02:44:43.476Z,98428.44
2022-10-17T02:47:14.125Z,98432.38
2022-10-17T02:49:45.096Z,98429.66
2022-10-17T02:52:14.657Z,98428.81
2022-10-17T02:54:44.253Z,98424.88
2022-10-17T02:57:13.537Z,98430.44
2022-10-17T02:59:42.030Z,98439.34
2022-10-17T03:02:09.420Z,98438.53
2022-10-17T03:04:36.782Z,98450.53
2022-10-17T03:07:05.457Z,98447.44
2022-10-17T03:09:32.773Z,98452.59
2022-10-17T03:12:00.173Z,98448.28
2022-10-17T03:14:27.516Z,98454.06
2022-10-17T03:16:54.854Z,98457.59
2022-10-17T03:19:22.204Z,98457.22
2022-10-17T03:21:50.213Z,98468.41
2022-10-17T03:24:18.902Z,98460.47
2022-10-17T03:29:18.522Z,98462.31
2022-10-17T03:31:45.888Z,98465.84
2022-10-17T03:34:13.224Z,98469.31
2022-10-17T03:36:40.573Z,98469.31
2022-10-17T03:39:07.910Z,98472.00
2022-10-17T03:41:36.593Z,98473.50
2022-10-17T03:44:03.989Z,98479.66
2022-10-17T03:46:31.330Z,98480.91
2022-10-17T03:48:58.681Z,98480.88
2022-10-17T03:51:26.065Z,98485.03
2022-10-17T03:53:53.421Z,98479.81
2022-10-17T03:56:21.489Z,98482.72
2022-10-17T03:58:50.521Z,98494.09
2022-10-17T04:01:18.707Z,98493.25
2022-10-17T04:03:49.561Z,98495.94
2022-10-17T04:06:16.913Z,98502.19
2022-10-17T04:08:44.270Z,98491.59
2022-10-17T04:11:14.233Z,98500.47
2022-10-17T04:13:41.742Z,98507.69
2022-10-17T04:16:12.770Z,98508.97
2022-10-17T04:18:40.112Z,98499.66
2022-10-17T04:21:08.035Z,98505.63
2022-10-17T04:23:35.821Z,98499.81
2022-10-17T04:26:03.775Z,98506.47
2022-10-17T04:28:32.041Z,98502.75
2022-10-17T04:30:59.956Z,98501.47
2022-10-17T04:33:28.776Z,98508.47
2022-10-17T04:35:56.822Z,98505.16
2022-10-17T04:38:27.746Z,98504.31
2022-10-17T04:40:57.833Z,98508.63
2022-10-17T04:43:25.153Z,98511.75
2022-10-17T04:45:52.493Z,98503.88
2022-10-17T04:48:19.896Z,98513.34
2022-10-17T04:50:55.909Z,98517.72
2022-10-17T04:53:23.696Z,98511.50
2022-10-17T04:55:51.038Z,98518.13
2022-10-17T04:58:21.484Z,98518.03
2022-10-17T05:00:48.892Z,98514.13
2022-10-17T05:03:16.541Z,98515.56
2022-10-17T05:05:43.926Z,98522.41
2022-10-17T05:08:13.076Z,98522.22
2022-10-17T05:10:41.233Z,98518.25
2022-10-17T05:13:08.624Z,98514.31
2022-10-17T05:15:36.077Z,98523.63
2022-10-17T05:18:03.497Z,98522.41
2022-10-17T05:20:30.820Z,98530.47
2022-10-17T05:22:59.426Z,98530.22
2022-10-17T05:25:28.112Z,98525.41
2022-10-17T05:27:55.507Z,98531.06
2022-10-17T05:30:23.430Z,98528.34
2022-10-17T05:32:53.167Z,98525.84
2022-10-17T05:35:20.535Z,98529.13
2022-10-17T05:37:47.906Z,98528.19
2022-10-17T05:40:15.421Z,98528.34
2022-10-17T05:42:48.229Z,98527.06
2022-10-17T05:45:15.773Z,98529.50
2022-10-17T05:47:43.204Z,98528.22
2022-10-17T05:50:21.323Z,98527.03
2022-10-17T05:53:12.305Z,98526.44
2022-10-17T05:55:39.642Z,98537.56
2022-10-17T05:58:09.755Z,98535.53
2022-10-17T06:03:20.534Z,98535.94
2022-10-17T06:05:47.872Z,98549.75
2022-10-17T06:08:15.228Z,98544.63
2022-10-17T06:10:42.562Z,98554.13
2022-10-17T06:13:11.241Z,98566.72
2022-10-17T06:15:38.592Z,98570.53
2022-10-17T06:18:05.939Z,98568.03
2022-10-17T06:20:33.284Z,98560.78
2022-10-17T06:23:00.700Z,98560.84
2022-10-17T06:25:29.102Z,98558.91
2022-10-17T06:27:56.474Z,98563.34
2022-10-17T06:30:25.161Z,98569.63
2022-10-17T06:32:54.384Z,98567.06
2022-10-17T06:35:21.778Z,98570.03
2022-10-17T06:37:49.115Z,98580.53
2022-10-17T06:40:17.141Z,98581.25
2022-10-17T06:42:44.788Z,98585.34
2022-10-17T06:45:12.321Z,98585.34
2022-10-17T06:47:41.043Z,98582.31
2022-10-17T06:50:08.681Z,98593.41
2022-10-17T06:52:36.014Z,98596.22
2022-10-17T06:57:30.998Z,98597.81
2022-10-17T06:59:58.599Z,98605.69
2022-10-17T07:02:26.042Z,98612.09
2022-10-17T07:04:56.359Z,98614.84
2022-10-17T07:07:23.689Z,98612.94
2022-10-17T07:09:52.251Z,98617.91
2022-10-17T07:12:19.575Z,98622.28
2022-10-17T07:14:47.320Z,98618.75
2022-10-17T07:17:14.662Z,98615.13
2022-10-17T07:19:43.335Z,98619.28
2022-10-17T07:22:12.499Z,98610.63
2022-10-17T07:24:40.021Z,98607.44
2022-10-17T07:27:07.477Z,98613.56
2022-10-17T07:29:34.871Z,98621.22
2022-10-17T07:32:03.879Z,98632.03
2022-10-17T07:34:31.442Z,98627.06
2022-10-17T07:36:58.841Z,98621.81
2022-10-17T07:39:27.585Z,98626.97
2022-10-17T07:41:55.137Z,98628.50
2022-10-17T07:44:22.496Z,98631.84
2022-10-17T07:46:49.918Z,98633.78
2022-10-17T07:49:17.315Z,98638.03
2022-10-17T07:51:44.824Z,98640.00
2022-10-17T07:54:12.278Z,98643.03
2022-10-17T07:56:41.050Z,98636.22
2022-10-17T07:59:09.479Z,98630.56
2022-10-17T08:01:37.821Z,98625.34
2022-10-17T08:04:05.166Z,98632.88
2022-10-17T08:06:32.515Z,98629.00
2022-10-17T08:09:01.516Z,98632.91
2022-10-17T08:11:28.874Z,98642.72
2022-10-17T08:13:57.554Z,98630.50
2022-10-17T08:16:24.895Z,98635.38
2022-10-17T08:18:52.238Z,98637.41
2022-10-17T08:21:19.639Z,98635.50
2022-10-17T08:23:47.048Z,98638.72
2022-10-17T08:26:17.143Z,98638.09
2022-10-17T08:28:44.786Z,98647.22
2022-10-17T08:31:14.243Z,98645.22
2022-10-17T08:33:41.780Z,98642.91
2022-10-17T08:36:09.888Z,98638.19
2022-10-17T08:38:41.442Z,98628.66
2022-10-17T08:41:33.041Z,98625.34
2022-10-17T08:44:04.796Z,98619.53
2022-10-17T08:46:35.203Z,98616.94
2022-10-17T08:49:03.722Z,98610.38
2022-10-17T08:51:33.443Z,98624.03
2022-10-17T08:54:06.028Z,98615.66
2022-10-17T08:56:48.032Z,98616.59
2022-10-17T08:59:18.720Z,98621.69
2022-10-17T09:01:50.590Z,98622.59
2022-10-17T09:04:34.271Z,98619.72
2022-10-17T09:07:06.059Z,98624.31
2022-10-17T09:09:37.520Z,98623.06
2022-10-17T09:12:12.676Z,98629.31
2022-10-17T09:14:53.924Z,98629.94
2022-10-17T09:17:28.785Z,98623.88
2022-10-17T09:20:00.237Z,98623.69
2022-10-17T09:22:29.354Z,98617.63
2022-10-17T09:24:58.264Z,98621.00
2022-10-17T09:27:27.084Z,98619.88
2022-10-17T09:29:56.333Z,98624.09
2022-10-17T09:32:26.342Z,98618.94
2022-10-17T09:34:56.581Z,98613.22
2022-10-17T09:37:28.863Z,98615.78
2022-10-17T09:39:56.248Z,98613.03
2022-10-17T09:42:25.677Z,98618.75
2022-10-17T09:44:56.684Z,98622.91
2022-10-17T09:47:29.273Z,98619.31
2022-10-17T09:49:56.643Z,98621.22
2022-10-17T09:52:27.789Z,98620.31
2022-10-17T09:54:57.880Z,98620.03
2022-10-17T09:57:25.442Z,98618.81
2022-10-17T09:59:57.982Z,98614.19
2022-10-17T10:02:28.295Z,98613.03
2022-10-17T10:05:06.630Z,98615.63
2022-10-17T10:07:35.756Z,98615.88
2022-10-17T10:10:03.994Z,98607.34
2022-10-17T10:12:32.786Z,98614.16
2022-10-17T10:15:00.248Z,98617.81
2022-10-17T10:17:30.391Z,98620.91
2022-10-17T10:19:57.726Z,98625.06
2022-10-17T10:22:25.069Z,98619.22
2022-10-17T10:25:08.127Z,98620.25
2022-10-17T10:27:35.603Z,98613.66
2022-10-17T10:30:03.419Z,98619.50
2022-10-17T10:32:32.952Z,98623.59
2022-10-17T10:35:01.917Z,98633.16
2022-10-17T10:37:30.500Z,98618.69
2022-10-17T10:39:59.451Z,98623.16
2022-10-17T10:42:29.275Z,98618.50
2022-10-17T10:44:59.534Z,98613.59
2022-10-17T10:47:28.767Z,98614.25
2022-10-17T10:50:10.037Z,98616.13
2022-10-17T10:52:41.093Z,98618.00
2022-10-17T10:55:18.586Z,98605.59
2022-10-17T10:57:47.416Z,98617.34
2022-10-17T11:00:16.781Z,98606.72
2022-10-17T11:02:47.396Z,98597.19
2022-10-17T11:05:20.923Z,98593.09
2022-10-17T11:07:52.358Z,98590.88
2022-10-17T11:10:22.998Z,98590.94
2022-10-17T11:12:53.147Z,98589.91
2022-10-17T11:15:23.245Z,98591.97
2022-10-17T11:17:55.136Z,98593.78
2022-10-17T11:20:28.650Z,98596.50
2022-10-17T11:22:58.611Z,98593.59
2022-10-17T11:25:34.784Z,98596.25
2022-10-17T11:28:05.210Z,98590.34
2022-10-17T11:30:48.850Z,98597.22
2022-10-17T11:33:18.392Z,98593.75
2022-10-17T11:35:48.107Z,98595.53
2022-10-17T11:38:18.653Z,98594.84
2022-10-17T11:40:48.459Z,98591.41
2022-10-17T11:43:18.621Z,98590.88
2022-10-17T11:45:48.208Z,98594.47
2022-10-17T11:48:18.425Z,98592.25
2022-10-17T11:53:47.270Z,98586.06
2022-10-17T11:56:17.687Z,98590.66
2022-10-17T11:58:51.391Z,98589.38
2022-10-17T12:01:23.617Z,98589.34
2022-10-17T12:04:02.447Z,98588.09
2022-10-17T12:06:39.613Z,98588.91
2022-10-17T12:09:11.072Z,98589.50
2022-10-17T12:11:43.559Z,98586.19
2022-10-17T12:14:25.780Z,98584.59
2022-10-17T12:16:53.817Z,98586.06
2022-10-17T12:19:32.560Z,98580.13
2022-10-17T12:22:03.881Z,98584.34
2022-10-17T12:24:35.214Z,98580.97
2022-10-17T12:27:21.161Z,98580.03
2022-10-17T12:29:49.274Z,98572.47
2022-10-17T12:32:16.880Z,98567.50
2022-10-17T12:34:52.242Z,98556.63
2022-10-17T12:37:34.486Z,98553.59
2022-10-17T12:40:03.152Z,98544.53
2022-10-17T12:42:31.876Z,98549.44
2022-10-17T12:44:59.354Z,98539.66
2022-10-17T12:47:37.400Z,98551.50
2022-10-17T12:50:05.185Z,98550.41
2022-10-17T12:55:21.061Z,98535.66
2022-10-17T12:57:50.855Z,98536.38
2022-10-17T13:00:20.817Z,98544.00
2022-10-17T13:02:49.019Z,98539.97
2022-10-17T13:05:20.271Z,98547.31
2022-10-17T13:07:49.383Z,98547.13
2022-10-17T13:13:04.354Z,98553.75
2022-10-17T13:15:31.774Z,98554.94
2022-10-17T13:17:59.517Z,98552.22
2022-10-17T13:20:30.594Z,98564.34
2022-10-17T13:22:59.144Z,98567.03
2022-10-17T13:25:28.454Z,98573.91
2022-10-17T13:28:13.375Z,98567.63
2022-10-17T13:30:40.939Z,98576.78
2022-10-17T13:33:19.924Z,98569.69
2022-10-17T13:36:00.051Z,98575.56
2022-10-17T13:38:29.648Z,98569.88
2022-10-17T13:41:10.805Z,98568.84
2022-10-17T13:43:48.146Z,98563.25
2022-10-17T13:46:36.255Z,98570.25
2022-10-17T13:49:11.541Z,98566.56
2022-10-17T13:51:43.178Z,98576.06
2022-10-17T13:54:18.906Z,98578.72
2022-10-17T13:56:47.665Z,98583.25
2022-10-17T13:59:23.274Z,98570.13
2022-10-17T14:01:52.080Z,98574.25
2022-10-17T14:04:20.167Z,98580.00
2022-10-17T14:06:49.860Z,98571.94
2022-10-17T14:09:22.199Z,98582.19
2022-10-17T14:11:59.123Z,98578.63
2022-10-17T14:14:27.340Z,98583.28
2022-10-17T14:16:55.193Z,98590.00
2022-10-17T14:19:25.537Z,98589.41
2022-10-17T14:21:54.411Z,98594.34
2022-10-17T14:24:29.327Z,98590.81
2022-10-17T14:26:59.570Z,98595.31
2022-10-17T14:29:28.103Z,98593.47
2022-10-17T14:32:03.497Z,98598.53
2022-10-17T14:34:32.570Z,98594.22
2022-10-17T14:37:00.100Z,98598.88
2022-10-17T14:39:28.247Z,98600.78
2022-10-17T14:41:55.823Z,98600.50
2022-10-17T14:44:26.832Z,98609.16
2022-10-17T14:46:56.039Z,98602.16
2022-10-17T14:49:28.548Z,98607.00
2022-10-17T14:52:15.075Z,98609.75
2022-10-17T14:54:46.357Z,98613.56
2022-10-17T14:57:16.601Z,98613.06
2022-10-17T14:59:54.181Z,98615.97
2022-10-17T15:02:22.282Z,98606.00
2022-10-17T15:04:49.644Z,98613.09
2022-10-17T15:07:17.900Z,98620.91
2022-10-17T15:09:45.788Z,98620.06
2022-10-17T15:12:15.722Z,98612.25
2022-10-17T15:14:43.851Z,98614.25
2022-10-17T15:17:16.064Z,98622.31
2022-10-17T15:19:43.419Z,98627.16
2022-10-17T15:22:10.780Z,98626.38
2022-10-17T15:24:38.168Z,98625.78
2022-10-17T15:27:07.647Z,98631.69
2022-10-17T15:29:34.958Z,98626.34
2022-10-17T15:32:02.275Z,98628.56
2022-10-17T15:34:30.983Z,98628.81
2022-10-17T15:36:58.694Z,98621.56
2022-10-17T15:39:26.096Z,98626.44
2022-10-17T15:41:53.440Z,98627.59
2022-10-17T15:44:20.763Z,98629.72
2022-10-17T15:46:48.097Z,98637.56
2022-10-17T15:49:17.143Z,98645.44
2022-10-17T15:51:45.805Z,98642.94
2022-10-17T15:56:48.446Z,98642.59
2022-10-17T15:59:16.529Z,98642.22
2022-10-17T16:01:43.963Z,98643.72
2022-10-17T16:04:12.852Z,98646.88
2022-10-17T16:06:40.268Z,98654.13
2022-10-17T16:09:08.931Z,98647.56
2022-10-17T16:11:37.055Z,98653.22
2022-10-17T16:14:05.362Z,98662.28
2022-10-17T16:16:32.707Z,98656.31
2022-10-17T16:19:01.366Z,98663.47
2022-10-17T16:24:02.074Z,98669.06
2022-10-17T16:26:30.818Z,98663.91
2022-10-17T16:29:02.528Z,98675.34
2022-10-17T16:31:32.175Z,98668.19
2022-10-17T16:34:00.413Z,98676.44
2022-10-17T16:36:27.742Z,98675.78
2022-10-17T16:38:55.139Z,98674.41
2022-10-17T16:41:23.816Z,98677.28
2022-10-17T16:43:53.438Z,98683.16
2022-10-17T16:46:21.310Z,98681.94
2022-10-17T16:48:49.003Z,98690.75
2022-10-17T16:51:18.048Z,98684.09
2022-10-17T16:53:45.727Z,98677.63
2022-10-17T16:56:14.385Z,98680.56
2022-10-17T16:58:42.099Z,98679.34
2022-10-17T17:01:12.914Z,98680.63
2022-10-17T17:03:40.943Z,98684.00
2022-10-17T17:06:08.851Z,98682.72
2022-10-17T17:08:37.961Z,98679.59
2022-10-17T17:11:07.242Z,98679.84
2022-10-17T17:13:34.734Z,98688.66
2022-10-17T17:16:05.488Z,98686.19
2022-10-17T17:18:34.539Z,98685.56
2022-10-17T17:21:02.551Z,98686.22
2022-10-17T17:23:30.603Z,98679.16
2022-10-17T17:25:58.523Z,98679.97
2022-10-17T17:28:27.011Z,98687.13
2022-10-17T17:30:54.739Z,98682.53
2022-10-17T17:33:22.179Z,98684.28
2022-10-17T17:35:54.622Z,98683.44
2022-10-17T17:38:21.975Z,98689.06
2022-10-17T17:40:50.834Z,98691.78
2022-10-17T17:43:18.883Z,98693.66
2022-10-17T17:45:46.236Z,98696.59
2022-10-17T17:48:13.798Z,98692.03
2022-10-17T17:50:41.599Z,98705.44
2022-10-17T17:53:10.808Z,98707.69
2022-10-17T17:55:38.180Z,98720.00
2022-10-17T17:58:05.983Z,98720.44
2022-10-17T18:00:34.798Z,98722.41
2022-10-17T18:03:02.668Z,98718.47
2022-10-17T18:05:30.510Z,98717.78
2022-10-17T18:07:57.864Z,98721.72
2022-10-17T18:10:28.303Z,98727.78
2022-10-17T18:12:55.673Z,98737.41
2022-10-17T18:15:23.146Z,98737.19
2022-10-17T18:17:50.527Z,98740.31
2022-10-17T18:20:17.930Z,98738.75
2022-10-17T18:22:45.324Z,98750.38
2022-10-17T18:25:12.671Z,98757.25
2022-10-17T18:27:41.579Z,98758.50
2022-10-17T18:30:09.474Z,98751.63
2022-10-17T18:32:36.818Z,98750.78
2022-10-17T18:35:04.326Z,98750.63
2022-10-17T18:37:31.736Z,98745.16
2022-10-17T18:39:59.095Z,98763.13
2022-10-17T18:42:26.451Z,98754.59
2022-10-17T18:44:55.160Z,98750.66
2022-10-17T18:47:22.471Z,98754.59
2022-10-17T18:49:49.941Z,98754.59
2022-10-17T18:52:17.327Z,98755.22
2022-10-17T18:54:44.673Z,98756.88
2022-10-17T18:57:12.097Z,98757.72
2022-10-17T18:59:39.445Z,98760.63
2022-10-17T19:02:09.718Z,98753.78
2022-10-17T19:04:37.106Z,98756.28
2022-10-17T19:07:04.732Z,98756.28
2022-10-17T19:09:32.236Z,98758.78
2022-10-17T19:12:00.144Z,98756.72
2022-10-17T19:14:28.609Z,98764.63
2022-10-17T19:16:57.094Z,98764.66
2022-10-17T19:19:26.551Z,98765.69
2022-10-17T19:21:53.965Z,98770.06
2022-10-17T19:24:22.262Z,98777.13
2022-10-17T19:26:52.932Z,98772.97
2022-10-17T19:29:20.890Z,98772.97
2022-10-17T19:31:48.565Z,98767.16
2022-10-17T19:34:16.441Z,98766.94
2022-10-17T19:36:45.419Z,98769.22
2022-10-17T19:39:13.978Z,98774.88
2022-10-17T19:41:41.410Z,98765.50
2022-10-17T19:44:08.800Z,98770.69
2022-10-17T19:46:36.167Z,98775.06
2022-10-17T19:49:03.689Z,98768.41
2022-10-17T19:51:31.530Z,98777.56
2022-10-17T19:54:01.082Z,98775.03
2022-10-17T19:56:29.070Z,98783.78
2022-10-17T19:58:57.095Z,98776.28
2022-10-17T20:01:26.082Z,98782.75
2022-10-17T20:03:54.172Z,98781.06
2022-10-17T20:06:21.527Z,98784.19
2022-10-17T20:08:48.954Z,98788.56
2022-10-17T20:11:18.940Z,98794.63
2022-10-17T20:13:46.801Z,98794.19
2022-10-17T20:16:15.109Z,98796.47
2022-10-17T20:18:43.069Z,98788.97
2022-10-17T20:21:12.061Z,98791.66
2022-10-17T20:23:39.810Z,98794.78
2022-10-17T20:26:25.383Z,98804.16
2022-10-17T20:28:57.645Z,98817.06
2022-10-17T20:31:25.311Z,98804.97
2022-10-17T20:33:55.301Z,98803.09
2022-10-17T20:36:23.396Z,98804.34
2022-10-17T20:38:53.446Z,98803.91
2022-10-17T20:41:20.776Z,98801.44
2022-10-17T20:43:50.884Z,98802.25
2022-10-17T20:46:35.176Z,98805.16
2022-10-17T20:49:03.295Z,98811.81
2022-10-17T20:51:30.826Z,98816.59
2022-10-17T20:53:58.250Z,98816.16
2022-10-17T20:56:26.416Z,98811.59
2022-10-17T20:58:54.377Z,98818.44
2022-10-17T21:01:23.547Z,98815.31
2022-10-17T21:03:51.259Z,98813.63
2022-10-17T21:06:19.235Z,98819.69
2022-10-17T21:08:47.428Z,98818.44
2022-10-17T21:11:16.124Z,98816.53
2022-10-17T21:13:43.511Z,98819.88
2022-10-17T21:16:11.713Z,98824.63
2022-10-17T21:18:40.879Z,98813.81
2022-10-17T21:21:09.683Z,98815.91
2022-10-17T21:23:37.173Z,98824.81
2022-10-17T21:26:06.895Z,98823.34
2022-10-17T21:28:34.956Z,98826.06
2022-10-17T21:31:09.187Z,98818.78
2022-10-17T21:33:36.533Z,98822.09
2022-10-17T21:36:05.475Z,98820.22
2022-10-17T21:38:33.006Z,98818.75
2022-10-17T21:41:00.350Z,98809.78
2022-10-17T21:43:27.770Z,98819.16
2022-10-17T21:45:55.102Z,98810.78
2022-10-17T21:48:22.456Z,98815.38
2022-10-17T21:50:49.804Z,98805.38
2022-10-17T21:53:18.477Z,98806.63
2022-10-17T21:55:45.807Z,98798.28
2022-10-17T21:58:13.197Z,98804.28
2022-10-17T22:00:40.551Z,98809.50
2022-10-17T22:03:09.448Z,98802.25
2022-10-17T22:05:36.791Z,98800.31
2022-10-17T22:08:04.236Z,98800.97
2022-10-17T22:10:32.962Z,98809.69
2022-10-17T22:13:00.306Z,98817.16
2022-10-17T22:15:27.655Z,98810.25
2022-10-17T22:17:55.006Z,98810.84
2022-10-17T22:20:22.341Z,98819.16
2022-10-17T22:22:49.758Z,98814.97
2022-10-17T22:25:17.143Z,98816.81
2022-10-17T22:27:45.801Z,98814.53
2022-10-17T22:30:13.150Z,98819.31
2022-10-17T22:32:40.499Z,98815.59
2022-10-17T22:35:11.177Z,98812.22
2022-10-17T22:37:38.546Z,98801.25
2022-10-17T22:40:06.653Z,98802.28
2022-10-17T22:42:34.511Z,98804.31
2022-10-17T22:45:03.513Z,98804.97
2022-10-17T22:47:31.555Z,98807.00
2022-10-17T22:49:59.118Z,98810.28
2022-10-17T22:52:26.442Z,98815.50
2022-10-17T22:54:53.801Z,98807.81
2022-10-17T22:57:21.157Z,98803.66
2022-10-17T22:59:48.483Z,98799.06
2022-10-17T23:02:17.193Z,98799.88
2022-10-17T23:04:44.509Z,98797.56
2022-10-17T23:07:14.057Z,98797.56
2022-10-17T23:09:41.678Z,98797.50
2022-10-17T23:12:09.618Z,98793.19
2022-10-17T23:14:38.341Z,98793.38
2022-10-17T23:17:05.869Z,98791.97
2022-10-17T23:19:34.729Z,98782.81
2022-10-17T23:22:02.145Z,98778.44
2022-10-17T23:24:29.537Z,98782.38
2022-10-17T23:26:57.244Z,98775.69
2022-10-17T23:29:25.327Z,98777.34
2022-10-17T23:31:54.771Z,98781.09
2022-10-17T23:34:22.216Z,98777.97
2022-10-17T23:36:52.187Z,98775.84
2022-10-17T23:39:19.557Z,98774.78
2022-10-17T23:41:46.894Z,98782.25
2022-10-17T23:44:14.643Z,98783.03
2022-10-17T23:46:41.977Z,98779.91
2022-10-17T23:49:09.385Z,98773.44
2022-10-17T23:51:36.717Z,98780.94
2022-10-17T23:54:05.668Z,98779.28
2022-10-17T23:56:32.986Z,98780.13
2022-10-17T23:59:00.758Z,98779.47
